Time,TemperatureF,DewpointF,PressureIn,WindDirection,WindDirectionDegrees,WindSpeedMPH,WindSpeedGustMPH,Humidity,HourlyPrecipIn,Conditions,Clouds,dailyrainin,SoftwareType,DateUTC
2013-09-14 00:01:00,61.2,52.9,29.83,NW,318,4.0,4.0,74,0.00,,---,0.18,VWS V13.01,2013-09-14 04:01:00,
2013-09-14 00:06:00,61.0,52.7,29.83,NW,306,6.0,7.0,74,0.00,,---,0.00,VWS V13.01,2013-09-14 04:06:00,
2013-09-14 00:11:00,60.8,52.1,29.84,North,355,0.0,0.0,73,0.00,,---,0.00,VWS V13.01,2013-09-14 04:11:00,
2013-09-14 00:16:00,60.7,52.4,29.83,NNE,19,0.0,0.0,74,0.00,,---,0.00,VWS V13.01,2013-09-14 04:16:00,
2013-09-14 00:21:00,60.7,52.0,29.83,North,355,0.0,0.0,73,0.00,,---,0.00,VWS V13.01,2013-09-14 04:21:00,
2013-09-14 00:26:00,60.5,51.8,29.84,NW,312,0.0,0.0,73,0.00,,---,0.00,VWS V13.01,2013-09-14 04:26:00,
2013-09-14 00:31:00,60.4,52.1,29.84,NNW,342,0.0,0.0,74,0.00,,---,0.00,VWS V13.01,2013-09-14 04:31:00,
2013-09-14 00:36:00,60.3,52.0,29.84,NW,315,0.0,0.0,74,0.00,,---,0.00,VWS V13.01,2013-09-14 04:36:00,
2013-09-14 00:41:00,60.2,52.3,29.84,NNW,348,3.0,5.0,75,0.00,,---,0.00,VWS V13.01,2013-09-14 04:41:00,
2013-09-14 00:46:00,60.0,52.1,29.84,NNE,16,0.0,0.0,75,0.00,,---,0.00,VWS V13.01,2013-09-14 04:46:00,
2013-09-14 00:51:00,59.9,52.0,29.84,NW,305,0.0,1.0,75,0.00,,---,0.00,VWS V13.01,2013-09-14 04:51:00,
2013-09-14 00:56:00,59.7,51.8,29.84,NW,321,5.0,6.0,75,0.00,,---,0.00,VWS V13.01,2013-09-14 04:56:00,
2013-09-14 01:01:00,59.6,51.7,29.84,NW,322,0.0,0.0,75,0.00,,---,0.00,VWS V13.01,2013-09-14 05:01:00,
2013-09-14 01:06:00,59.5,51.9,29.85,NNW,332,0.0,0.0,76,0.00,,---,0.00,VWS V13.01,2013-09-14 05:06:00,
2013-09-14 01:11:00,59.4,51.8,29.85,WNW,293,0.0,3.0,76,0.00,,---,0.00,VWS V13.01,2013-09-14 05:11:00,
2013-09-14 01:16:00,59.2,51.7,29.85,WNW,292,3.0,4.0,76,0.00,,---,0.00,VWS V13.01,2013-09-14 05:16:00,
2013-09-14 01:21:00,59.1,51.5,29.85,North,9,0.0,0.0,76,0.00,,---,0.00,VWS V13.01,2013-09-14 05:21:00,
2013-09-14 01:26:00,59.0,51.5,29.85,WNW,294,0.0,0.0,76,0.00,,---,0.00,VWS V13.01,2013-09-14 05:26:00,
2013-09-14 01:31:00,58.8,51.3,29.85,NE,49,0.0,0.0,76,0.00,,---,0.00,VWS V13.01,2013-09-14 05:31:00,
2013-09-14 01:36:00,58.7,51.2,29.86,West,268,2.0,4.0,76,0.00,,---,0.00,VWS V13.01,2013-09-14 05:36:00,
2013-09-14 01:41:00,58.6,51.1,29.86,WNW,283,0.0,2.0,76,0.00,,---,0.00,VWS V13.01,2013-09-14 05:41:00,
2013-09-14 01:46:00,58.5,51.0,29.86,NNW,329,0.0,1.0,76,0.00,,---,0.00,VWS V13.01,2013-09-14 05:46:00,
2013-09-14 01:51:00,58.4,50.9,29.86,NW,306,2.0,3.0,76,0.00,,---,0.00,VWS V13.01,2013-09-14 05:51:00,
2013-09-14 01:56:00,58.3,50.8,29.86,NNW,328,0.0,0.0,76,0.00,,---,0.00,VWS V13.01,2013-09-14 05:56:00,
2013-09-14 02:01:00,58.3,50.4,29.86,WNW,286,3.0,6.0,75,0.00,,---,0.00,VWS V13.01,2013-09-14 06:01:00,
2013-09-14 02:06:00,58.2,50.3,29.86,NNE,15,4.0,4.0,75,0.00,,---,0.00,VWS V13.01,2013-09-14 06:06:00,
2013-09-14 02:11:00,58.2,50.3,29.86,North,355,5.0,7.0,75,0.00,,---,0.00,VWS V13.01,2013-09-14 06:11:00,
2013-09-14 02:16:00,58.2,50.3,29.86,NNE,13,5.0,10.0,75,0.00,,---,0.00,VWS V13.01,2013-09-14 06:16:00,
2013-09-14 02:21:00,58.1,50.2,29.86,NW,321,4.0,6.0,75,0.00,,---,0.00,VWS V13.01,2013-09-14 06:21:00,
2013-09-14 02:26:00,58.1,50.2,29.86,NW,317,0.0,0.0,75,0.00,,---,0.00,VWS V13.01,2013-09-14 06:26:00,
2013-09-14 02:31:00,58.0,50.5,29.86,NNW,337,3.0,7.0,76,0.00,,---,0.00,VWS V13.01,2013-09-14 06:31:00,
2013-09-14 02:36:00,57.9,50.4,29.87,NW,309,0.0,1.0,76,0.00,,---,0.00,VWS V13.01,2013-09-14 06:36:00,
2013-09-14 02:41:00,57.8,50.3,29.87,NW,321,4.0,4.0,76,0.00,,---,0.00,VWS V13.01,2013-09-14 06:41:00,
2013-09-14 02:46:00,57.7,50.2,29.87,NNW,327,1.0,3.0,76,0.00,,---,0.00,VWS V13.01,2013-09-14 06:46:00,
2013-09-14 02:51:00,57.6,50.1,29.87,WNW,297,6.0,6.0,76,0.00,,---,0.00,VWS V13.01,2013-09-14 06:51:00,
2013-09-14 02:56:00,57.5,50.0,29.87,NNE,15,1.0,1.0,76,0.00,,---,0.00,VWS V13.01,2013-09-14 06:56:00,
2013-09-14 03:01:00,57.4,50.3,29.87,WNW,299,9.0,9.0,77,0.00,,---,0.00,VWS V13.01,2013-09-14 07:01:00,
2013-09-14 03:06:00,57.3,50.2,29.87,NW,325,3.0,4.0,77,0.00,,---,0.00,VWS V13.01,2013-09-14 07:06:00,
2013-09-14 03:11:00,57.2,50.1,29.87,NNW,331,0.0,0.0,77,0.00,,---,0.00,VWS V13.01,2013-09-14 07:11:00,
2013-09-14 03:16:00,57.1,50.0,29.87,WNW,302,0.0,0.0,77,0.00,,---,0.00,VWS V13.01,2013-09-14 07:16:00,
2013-09-14 03:21:00,57.0,50.2,29.87,NNW,328,0.0,5.0,78,0.00,,---,0.00,VWS V13.01,2013-09-14 07:21:00,
2013-09-14 03:26:00,56.9,50.1,29.87,NW,306,0.0,2.0,78,0.00,,---,0.00,VWS V13.01,2013-09-14 07:26:00,
2013-09-14 03:31:00,56.8,50.0,29.87,NW,319,0.0,0.0,78,0.00,,---,0.00,VWS V13.01,2013-09-14 07:31:00,
2013-09-14 03:36:00,56.7,50.3,29.87,WNW,300,0.0,2.0,79,0.00,,---,0.00,VWS V13.01,2013-09-14 07:36:00,
2013-09-14 03:41:00,56.5,50.1,29.87,NNW,327,0.0,4.0,79,0.00,,---,0.00,VWS V13.01,2013-09-14 07:41:00,
2013-09-14 03:46:00,56.4,50.3,29.87,North,355,0.0,5.0,80,0.00,,---,0.00,VWS V13.01,2013-09-14 07:46:00,
2013-09-14 03:51:00,56.2,50.1,29.88,WNW,282,0.0,1.0,80,0.00,,---,0.00,VWS V13.01,2013-09-14 07:51:00,
2013-09-14 03:56:00,56.1,50.0,29.88,NW,311,0.0,6.0,80,0.00,,---,0.00,VWS V13.01,2013-09-14 07:56:00,
2013-09-14 04:01:00,56.0,49.9,29.88,NW,317,0.0,0.0,80,0.00,,---,0.00,VWS V13.01,2013-09-14 08:01:00,
2013-09-14 04:05:00,55.8,50.1,29.88,NW,312,0.0,3.0,81,0.00,,---,0.00,VWS V13.01,2013-09-14 08:05:00,
2013-09-14 04:10:00,55.7,50.0,29.88,NW,315,0.0,0.0,81,0.00,,---,0.00,VWS V13.01,2013-09-14 08:10:00,
2013-09-14 04:15:00,55.6,49.9,29.88,NW,315,0.0,0.0,81,0.00,,---,0.00,VWS V13.01,2013-09-14 08:15:00,
2013-09-14 04:20:00,55.5,50.1,29.88,NW,315,0.0,0.0,82,0.00,,---,0.00,VWS V13.01,2013-09-14 08:20:00,
2013-09-14 04:25:00,55.4,50.0,29.88,NW,315,1.0,1.0,82,0.00,,---,0.00,VWS V13.01,2013-09-14 08:25:00,
2013-09-14 04:30:00,55.3,49.9,29.88,NW,315,0.0,0.0,82,0.00,,---,0.00,VWS V13.01,2013-09-14 08:30:00,
2013-09-14 04:35:00,55.1,49.7,29.88,NW,320,0.0,3.0,82,0.00,,---,0.00,VWS V13.01,2013-09-14 08:35:00,
2013-09-14 04:40:00,55.0,49.6,29.88,NW,320,0.0,0.0,82,0.00,,---,0.00,VWS V13.01,2013-09-14 08:40:00,
2013-09-14 04:45:00,54.9,49.8,29.89,WNW,303,0.0,0.0,83,0.00,,---,0.00,VWS V13.01,2013-09-14 08:45:00,
2013-09-14 04:50:00,54.9,49.8,29.89,WNW,302,0.0,3.0,83,0.00,,---,0.00,VWS V13.01,2013-09-14 08:50:00,
2013-09-14 04:55:00,54.7,49.7,29.89,NW,310,0.0,0.0,83,0.00,,---,0.00,VWS V13.01,2013-09-14 08:55:00,
2013-09-14 05:00:00,54.6,49.5,29.89,NNW,328,0.0,0.0,83,0.00,,---,0.00,VWS V13.01,2013-09-14 09:00:00,
2013-09-14 05:05:00,54.6,49.5,29.89,NNW,328,0.0,0.0,83,0.00,,---,0.00,VWS V13.01,2013-09-14 09:05:00,
2013-09-14 05:10:00,54.5,49.8,29.89,NW,306,0.0,0.0,84,0.00,,---,0.00,VWS V13.01,2013-09-14 09:10:00,
2013-09-14 05:15:00,54.4,49.3,29.89,NW,306,0.0,0.0,83,0.00,,---,0.00,VWS V13.01,2013-09-14 09:15:00,
2013-09-14 05:20:00,54.3,49.6,29.90,NW,306,0.0,0.0,84,0.00,,---,0.00,VWS V13.01,2013-09-14 09:20:00,
2013-09-14 05:25:00,54.2,49.5,29.90,NNW,329,0.0,0.0,84,0.00,,---,0.00,VWS V13.01,2013-09-14 09:25:00,
2013-09-14 05:30:00,54.2,49.5,29.90,NW,305,0.0,0.0,84,0.00,,---,0.00,VWS V13.01,2013-09-14 09:30:00,
2013-09-14 05:35:00,54.1,49.4,29.90,NW,306,0.0,0.0,84,0.00,,---,0.00,VWS V13.01,2013-09-14 09:35:00,
2013-09-14 05:40:00,54.0,49.3,29.90,NNW,327,0.0,3.0,84,0.00,,---,0.00,VWS V13.01,2013-09-14 09:40:00,
2013-09-14 05:45:00,53.9,49.2,29.90,NW,309,0.0,2.0,84,0.00,,---,0.00,VWS V13.01,2013-09-14 09:45:00,
2013-09-14 05:50:00,53.8,49.1,29.90,NW,315,0.0,1.0,84,0.00,,---,0.00,VWS V13.01,2013-09-14 09:50:00,
2013-09-14 05:55:00,53.8,49.1,29.90,NW,310,0.0,1.0,84,0.00,,---,0.00,VWS V13.01,2013-09-14 09:55:00,
2013-09-14 06:00:00,53.7,49.0,29.91,NW,323,0.0,2.0,84,0.00,,---,0.00,VWS V13.01,2013-09-14 10:00:00,
2013-09-14 06:05:00,53.6,49.2,29.91,NW,319,0.0,1.0,85,0.00,,---,0.00,VWS V13.01,2013-09-14 10:05:00,
2013-09-14 06:10:00,53.5,49.1,29.91,NNW,327,0.0,0.0,85,0.00,,---,0.00,VWS V13.01,2013-09-14 10:10:00,
2013-09-14 06:15:00,53.4,49.0,29.91,NW,311,0.0,0.0,85,0.00,,---,0.00,VWS V13.01,2013-09-14 10:15:00,
2013-09-14 06:20:00,53.3,48.9,29.91,NW,321,0.0,0.0,85,0.00,,---,0.00,VWS V13.01,2013-09-14 10:20:00,
2013-09-14 06:25:00,53.2,48.8,29.91,NW,321,0.0,0.0,85,0.00,,---,0.00,VWS V13.01,2013-09-14 10:25:00,
2013-09-14 06:30:00,53.1,49.0,29.91,NW,321,0.0,0.0,86,0.00,,---,0.00,VWS V13.01,2013-09-14 10:30:00,
2013-09-14 06:35:00,53.0,48.9,29.91,NW,321,0.0,0.0,86,0.00,,---,0.00,VWS V13.01,2013-09-14 10:35:00,
2013-09-14 06:40:00,52.9,48.8,29.92,West,281,0.0,2.0,86,0.00,,---,0.00,VWS V13.01,2013-09-14 10:40:00,
2013-09-14 06:45:00,52.8,48.7,29.92,WNW,301,1.0,5.0,86,0.00,,---,0.00,VWS V13.01,2013-09-14 10:45:00,
2013-09-14 06:50:00,52.8,48.7,29.92,NW,312,3.0,5.0,86,0.00,,---,0.00,VWS V13.01,2013-09-14 10:50:00,
2013-09-14 06:55:00,52.7,48.6,29.92,NW,313,0.0,0.0,86,0.00,,---,0.00,VWS V13.01,2013-09-14 10:55:00,
2013-09-14 07:00:00,52.8,48.7,29.92,NW,322,5.0,5.0,86,0.00,,---,0.00,VWS V13.01,2013-09-14 11:00:00,
2013-09-14 07:05:00,52.8,48.7,29.92,NW,309,3.0,3.0,86,0.00,,---,0.00,VWS V13.01,2013-09-14 11:05:00,
2013-09-14 07:10:00,52.9,48.8,29.92,NW,317,0.0,0.0,86,0.00,,---,0.00,VWS V13.01,2013-09-14 11:10:00,
2013-09-14 07:15:00,53.0,48.9,29.92,WNW,299,0.0,0.0,86,0.00,,---,0.00,VWS V13.01,2013-09-14 11:15:00,
2013-09-14 07:20:00,53.1,48.7,29.93,SW,235,0.0,4.0,85,0.00,,---,0.00,VWS V13.01,2013-09-14 11:20:00,
2013-09-14 07:25:00,53.3,48.9,29.93,NW,323,2.0,2.0,85,0.00,,---,0.00,VWS V13.01,2013-09-14 11:25:00,
2013-09-14 07:30:00,53.5,49.1,29.93,NNW,333,4.0,4.0,85,0.00,,---,0.00,VWS V13.01,2013-09-14 11:30:00,
2013-09-14 07:35:00,53.7,49.0,29.93,NW,310,2.0,2.0,84,0.00,,---,0.00,VWS V13.01,2013-09-14 11:35:00,
2013-09-14 07:40:00,54.0,49.0,29.93,WNW,294,0.0,1.0,83,0.00,,---,0.00,VWS V13.01,2013-09-14 11:40:00,
2013-09-14 07:45:00,54.2,49.2,29.93,NNW,348,0.0,5.0,83,0.00,,---,0.00,VWS V13.01,2013-09-14 11:45:00,
2013-09-14 07:50:00,54.6,49.2,29.93,NNW,329,0.0,0.0,82,0.00,,---,0.00,VWS V13.01,2013-09-14 11:50:00,
2013-09-14 07:55:00,54.9,49.5,29.94,NW,321,3.0,3.0,82,0.00,,---,0.00,VWS V13.01,2013-09-14 11:55:00,
2013-09-14 08:00:00,55.1,49.0,29.94,NNW,346,0.0,2.0,80,0.00,,---,0.00,VWS V13.01,2013-09-14 12:00:00,
2013-09-14 08:05:00,55.4,49.3,29.94,NW,319,0.0,2.0,80,0.00,,---,0.00,VWS V13.01,2013-09-14 12:05:00,
2013-09-14 08:10:00,55.7,49.3,29.94,West,281,4.0,5.0,79,0.00,,---,0.00,VWS V13.01,2013-09-14 12:10:00,
2013-09-14 08:15:00,55.9,49.2,29.94,NW,321,0.0,5.0,78,0.00,,---,0.00,VWS V13.01,2013-09-14 12:15:00,
2013-09-14 08:20:00,56.1,49.3,29.94,North,349,3.0,3.0,78,0.00,,---,0.00,VWS V13.01,2013-09-14 12:20:00,
2013-09-14 08:25:00,56.2,49.4,29.94,WNW,300,0.0,0.0,78,0.00,,---,0.00,VWS V13.01,2013-09-14 12:25:00,
2013-09-14 08:30:00,56.4,49.6,29.94,NW,319,2.0,4.0,78,0.00,,---,0.00,VWS V13.01,2013-09-14 12:30:00,
2013-09-14 08:35:00,56.7,49.6,29.95,NNE,24,0.0,3.0,77,0.00,,---,0.00,VWS V13.01,2013-09-14 12:35:00,
2013-09-14 08:40:00,56.9,49.8,29.95,WNW,299,2.0,7.0,77,0.00,,---,0.00,VWS V13.01,2013-09-14 12:40:00,
2013-09-14 08:45:00,57.0,49.5,29.95,WNW,303,0.0,1.0,76,0.00,,---,0.00,VWS V13.01,2013-09-14 12:45:00,
2013-09-14 08:50:00,57.2,49.7,29.95,NNE,24,4.0,5.0,76,0.00,,---,0.00,VWS V13.01,2013-09-14 12:50:00,
2013-09-14 08:55:00,57.3,49.5,29.96,NE,35,0.0,2.0,75,0.00,,---,0.00,VWS V13.01,2013-09-14 12:55:00,
2013-09-14 09:00:00,57.6,50.1,29.96,North,349,2.0,3.0,76,0.00,,---,0.00,VWS V13.01,2013-09-14 13:00:00,
2013-09-14 09:05:00,57.8,49.6,29.97,NW,321,2.0,5.0,74,0.00,,---,0.00,VWS V13.01,2013-09-14 13:05:00,
2013-09-14 09:10:00,57.8,49.2,29.96,NNW,332,0.0,3.0,73,0.00,,---,0.00,VWS V13.01,2013-09-14 13:10:00,
2013-09-14 09:15:00,58.0,49.8,29.97,NW,313,0.0,4.0,74,0.00,,---,0.00,VWS V13.01,2013-09-14 13:15:00,
2013-09-14 09:20:00,58.3,50.1,29.97,North,349,3.0,5.0,74,0.00,,---,0.00,VWS V13.01,2013-09-14 13:20:00,
2013-09-14 09:25:00,58.6,50.0,29.97,WNW,294,6.0,10.0,73,0.00,,---,0.00,VWS V13.01,2013-09-14 13:25:00,
2013-09-14 09:30:00,58.7,49.7,29.97,NNE,15,2.0,5.0,72,0.00,,---,0.00,VWS V13.01,2013-09-14 13:30:00,
2013-09-14 09:35:00,58.9,49.9,29.97,North,360,2.0,6.0,72,0.00,,---,0.00,VWS V13.01,2013-09-14 13:35:00,
2013-09-14 09:40:00,59.1,49.7,29.97,WNW,294,10.0,11.0,71,0.00,,---,0.00,VWS V13.01,2013-09-14 13:40:00,
2013-09-14 09:45:00,59.1,49.3,29.97,WNW,302,5.0,9.0,70,0.00,,---,0.00,VWS V13.01,2013-09-14 13:45:00,
2013-09-14 09:50:00,59.2,49.4,29.97,NNW,335,1.0,1.0,70,0.00,,---,0.00,VWS V13.01,2013-09-14 13:50:00,
2013-09-14 09:55:00,59.4,49.6,29.97,NW,315,0.0,0.0,70,0.00,,---,0.00,VWS V13.01,2013-09-14 13:55:00,
2013-09-14 10:00:00,59.8,50.0,29.97,North,360,0.0,2.0,70,0.00,,---,0.00,VWS V13.01,2013-09-14 14:00:00,
2013-09-14 10:05:00,60.2,50.4,29.97,WNW,285,6.0,7.0,70,0.00,,---,0.00,VWS V13.01,2013-09-14 14:05:00,
2013-09-14 10:10:00,60.5,50.3,29.97,NW,305,0.0,3.0,69,0.00,,---,0.00,VWS V13.01,2013-09-14 14:10:00,
2013-09-14 10:15:00,60.8,50.6,29.97,NW,317,0.0,3.0,69,0.00,,---,0.00,VWS V13.01,2013-09-14 14:15:00,
2013-09-14 10:20:00,61.1,50.5,29.97,West,277,0.0,6.0,68,0.00,,---,0.00,VWS V13.01,2013-09-14 14:20:00,
2013-09-14 10:25:00,61.2,50.2,29.97,ENE,63,1.0,6.0,67,0.00,,---,0.00,VWS V13.01,2013-09-14 14:25:00,
2013-09-14 10:30:00,61.2,50.2,29.97,WNW,303,0.0,0.0,67,0.00,,---,0.00,VWS V13.01,2013-09-14 14:30:00,
2013-09-14 10:35:00,61.3,50.7,29.97,WNW,287,2.0,5.0,68,0.00,,---,0.00,VWS V13.01,2013-09-14 14:35:00,
2013-09-14 10:40:00,61.5,50.0,29.97,NNW,348,1.0,4.0,66,0.00,,---,0.00,VWS V13.01,2013-09-14 14:40:00,
2013-09-14 10:45:00,61.7,50.6,29.97,NW,306,2.0,7.0,67,0.00,,---,0.00,VWS V13.01,2013-09-14 14:45:00,
2013-09-14 10:50:00,61.9,50.4,29.97,NW,315,2.0,12.0,66,0.00,,---,0.00,VWS V13.01,2013-09-14 14:50:00,
2013-09-14 10:55:00,61.9,50.0,29.97,NE,56,3.0,6.0,65,0.00,,---,0.00,VWS V13.01,2013-09-14 14:55:00,
2013-09-14 11:00:00,62.1,51.0,29.97,NW,304,4.0,4.0,67,0.00,,---,0.00,VWS V13.01,2013-09-14 15:00:00,
2013-09-14 11:05:00,62.3,50.8,29.97,NNW,333,1.0,4.0,66,0.00,,---,0.00,VWS V13.01,2013-09-14 15:05:00,
2013-09-14 11:10:00,62.6,49.8,29.97,NW,307,0.0,1.0,63,0.00,,---,0.00,VWS V13.01,2013-09-14 15:10:00,
2013-09-14 11:15:00,62.9,50.1,29.97,WNW,300,3.0,8.0,63,0.00,,---,0.00,VWS V13.01,2013-09-14 15:15:00,
2013-09-14 11:20:00,62.8,49.6,29.97,NNW,345,1.0,6.0,62,0.00,,---,0.00,VWS V13.01,2013-09-14 15:20:00,
2013-09-14 11:25:00,63.1,50.7,29.97,West,281,2.0,5.0,64,0.00,,---,0.00,VWS V13.01,2013-09-14 15:25:00,
2013-09-14 11:30:00,63.4,50.2,29.97,North,350,0.0,0.0,62,0.00,,---,0.00,VWS V13.01,2013-09-14 15:30:00,
2013-09-14 11:35:00,63.7,50.9,29.97,WNW,292,0.0,1.0,63,0.00,,---,0.00,VWS V13.01,2013-09-14 15:35:00,
2013-09-14 11:40:00,64.2,50.5,29.97,North,10,1.0,5.0,61,0.00,,---,0.00,VWS V13.01,2013-09-14 15:40:00,
2013-09-14 11:45:00,64.3,50.1,29.97,NW,307,0.0,0.0,60,0.00,,---,0.00,VWS V13.01,2013-09-14 15:45:00,
2013-09-14 11:50:00,64.3,50.1,29.97,NW,325,0.0,4.0,60,0.00,,---,0.00,VWS V13.01,2013-09-14 15:50:00,
2013-09-14 11:55:00,64.6,50.9,29.97,North,350,2.0,2.0,61,0.00,,---,0.00,VWS V13.01,2013-09-14 15:55:00,
2013-09-14 12:00:00,64.8,50.6,29.97,North,5,0.0,1.0,60,0.00,,---,0.00,VWS V13.01,2013-09-14 16:00:00,
2013-09-14 12:05:00,64.8,50.6,29.97,NW,313,0.0,2.0,60,0.00,,---,0.00,VWS V13.01,2013-09-14 16:05:00,
2013-09-14 12:10:00,65.0,50.8,29.97,NW,307,0.0,0.0,60,0.00,,---,0.00,VWS V13.01,2013-09-14 16:10:00,
2013-09-14 12:15:00,65.2,50.5,29.97,NW,305,0.0,1.0,59,0.00,,---,0.00,VWS V13.01,2013-09-14 16:15:00,
2013-09-14 12:20:00,65.5,50.8,29.97,WNW,290,4.0,5.0,59,0.00,,---,0.00,VWS V13.01,2013-09-14 16:20:00,
2013-09-14 12:25:00,65.7,51.5,29.97,NW,323,0.0,0.0,60,0.00,,---,0.00,VWS V13.01,2013-09-14 16:25:00,
2013-09-14 12:30:00,66.2,51.9,29.98,NW,304,0.0,1.0,60,0.00,,---,0.00,VWS V13.01,2013-09-14 16:30:00,
2013-09-14 12:35:00,66.7,51.5,29.98,WNW,298,0.0,0.0,58,0.00,,---,0.00,VWS V13.01,2013-09-14 16:35:00,
2013-09-14 12:40:00,66.9,51.2,29.98,NNE,17,0.0,1.0,57,0.00,,---,0.00,VWS V13.01,2013-09-14 16:40:00,
2013-09-14 12:45:00,66.3,50.2,29.98,NW,312,1.0,1.0,56,0.00,,---,0.00,VWS V13.01,2013-09-14 16:45:00,
2013-09-14 12:50:00,66.3,51.6,29.98,West,259,2.0,3.0,59,0.00,,---,0.00,VWS V13.01,2013-09-14 16:50:00,
2013-09-14 12:55:00,67.1,51.4,29.98,NW,308,3.0,5.0,57,0.00,,---,0.00,VWS V13.01,2013-09-14 16:55:00,
2013-09-14 13:00:00,67.5,51.8,29.98,NNW,348,3.0,7.0,57,0.00,,---,0.00,VWS V13.01,2013-09-14 17:00:00,
2013-09-14 13:05:00,67.7,51.9,29.98,West,277,1.0,1.0,57,0.00,,---,0.00,VWS V13.01,2013-09-14 17:05:00,
2013-09-14 13:10:00,67.6,50.9,29.98,ENE,65,0.0,0.0,55,0.00,,---,0.00,VWS V13.01,2013-09-14 17:10:00,
2013-09-14 13:15:00,67.5,51.3,29.98,NW,315,0.0,1.0,56,0.00,,---,0.00,VWS V13.01,2013-09-14 17:15:00,
2013-09-14 13:20:00,67.9,52.6,29.98,NW,305,3.0,7.0,58,0.00,,---,0.00,VWS V13.01,2013-09-14 17:20:00,
2013-09-14 13:25:00,68.6,52.3,29.98,West,280,0.0,0.0,56,0.00,,---,0.00,VWS V13.01,2013-09-14 17:25:00,
2013-09-14 13:30:00,69.3,52.5,29.98,WSW,244,0.0,1.0,55,0.00,,---,0.00,VWS V13.01,2013-09-14 17:30:00,
2013-09-14 13:35:00,69.8,52.4,29.98,NNW,329,4.0,5.0,54,0.00,,---,0.00,VWS V13.01,2013-09-14 17:35:00,
2013-09-14 13:40:00,68.9,51.1,29.98,WNW,295,1.0,2.0,53,0.00,,---,0.00,VWS V13.01,2013-09-14 17:40:00,
2013-09-14 13:45:00,68.6,51.8,29.98,NW,323,0.0,0.0,55,0.00,,---,0.00,VWS V13.01,2013-09-14 17:45:00,
2013-09-14 13:50:00,68.5,52.2,29.98,NW,313,0.0,3.0,56,0.00,,---,0.00,VWS V13.01,2013-09-14 17:50:00,
2013-09-14 13:55:00,68.2,50.9,29.97,NW,318,0.0,0.0,54,0.00,,---,0.00,VWS V13.01,2013-09-14 17:55:00,
2013-09-14 14:00:00,67.9,50.7,29.97,NNW,332,0.0,1.0,54,0.00,,---,0.00,VWS V13.01,2013-09-14 18:00:00,
2013-09-14 14:05:00,67.6,52.3,29.97,SW,236,5.0,5.0,58,0.00,,---,0.00,VWS V13.01,2013-09-14 18:05:00,
2013-09-14 14:10:00,68.1,51.8,29.97,West,279,1.0,3.0,56,0.00,,---,0.00,VWS V13.01,2013-09-14 18:10:00,
2013-09-14 14:15:00,68.8,52.5,29.97,NW,311,6.0,8.0,56,0.00,,---,0.00,VWS V13.01,2013-09-14 18:15:00,
2013-09-14 14:20:00,69.0,52.2,29.98,West,275,0.0,0.0,55,0.00,,---,0.00,VWS V13.01,2013-09-14 18:20:00,
2013-09-14 14:25:00,69.1,52.3,29.97,NNW,331,0.0,0.0,55,0.00,,---,0.00,VWS V13.01,2013-09-14 18:25:00,
2013-09-14 14:30:00,69.4,52.0,29.98,WNW,292,4.0,4.0,54,0.00,,---,0.00,VWS V13.01,2013-09-14 18:30:00,
2013-09-14 14:35:00,68.9,51.6,29.98,NNW,329,1.0,1.0,54,0.00,,---,0.00,VWS V13.01,2013-09-14 18:35:00,
2013-09-14 14:40:00,68.2,51.4,29.98,WNW,290,3.0,4.0,55,0.00,,---,0.00,VWS V13.01,2013-09-14 18:40:00,
2013-09-14 14:45:00,68.0,51.7,29.98,NW,304,0.0,0.0,56,0.00,,---,0.00,VWS V13.01,2013-09-14 18:45:00,
2013-09-14 14:50:00,67.9,51.6,29.98,WNW,303,0.0,0.0,56,0.00,,---,0.00,VWS V13.01,2013-09-14 18:50:00,
2013-09-14 14:55:00,67.8,52.5,29.98,NW,309,0.0,0.0,58,0.00,,---,0.00,VWS V13.01,2013-09-14 18:55:00,
2013-09-14 15:00:00,68.0,51.7,29.98,WNW,300,0.0,0.0,56,0.00,,---,0.00,VWS V13.01,2013-09-14 19:00:00,
2013-09-14 15:05:00,68.3,52.0,29.98,NNE,19,0.0,0.0,56,0.00,,---,0.00,VWS V13.01,2013-09-14 19:05:00,
2013-09-14 15:10:00,68.7,51.9,29.98,West,263,2.0,4.0,55,0.00,,---,0.00,VWS V13.01,2013-09-14 19:10:00,
2013-09-14 15:15:00,68.9,52.6,29.98,NW,306,6.0,6.0,56,0.00,,---,0.00,VWS V13.01,2013-09-14 19:15:00,
2013-09-14 15:20:00,68.8,52.5,29.98,WNW,285,10.0,10.0,56,0.00,,---,0.00,VWS V13.01,2013-09-14 19:20:00,
2013-09-14 15:25:00,68.4,52.1,29.98,NNW,334,3.0,7.0,56,0.00,,---,0.00,VWS V13.01,2013-09-14 19:25:00,
2013-09-14 15:30:00,67.8,52.0,29.99,NW,326,2.0,10.0,57,0.00,,---,0.00,VWS V13.01,2013-09-14 19:30:00,
2013-09-14 15:35:00,67.4,52.1,29.98,NE,55,0.0,0.0,58,0.00,,---,0.00,VWS V13.01,2013-09-14 19:35:00,
2013-09-14 15:40:00,67.3,52.0,29.98,NNW,329,0.0,4.0,58,0.00,,---,0.00,VWS V13.01,2013-09-14 19:40:00,
2013-09-14 15:45:00,66.9,51.7,29.98,ENE,73,0.0,4.0,58,0.00,,---,0.00,VWS V13.01,2013-09-14 19:45:00,
2013-09-14 15:50:00,66.8,52.0,29.98,NE,36,0.0,0.0,59,0.00,,---,0.00,VWS V13.01,2013-09-14 19:50:00,
2013-09-14 15:55:00,67.0,51.8,29.99,West,272,5.0,9.0,58,0.00,,---,0.00,VWS V13.01,2013-09-14 19:55:00,
2013-09-14 16:00:00,66.9,52.1,29.99,NW,309,0.0,4.0,59,0.00,,---,0.00,VWS V13.01,2013-09-14 20:00:00,
2013-09-14 16:05:00,66.7,51.9,29.99,WNW,294,1.0,6.0,59,0.00,,---,0.00,VWS V13.01,2013-09-14 20:05:00,
2013-09-14 16:10:00,66.5,51.8,29.99,NW,304,15.0,16.0,59,0.00,,---,0.00,VWS V13.01,2013-09-14 20:10:00,
2013-09-14 16:15:00,66.2,51.5,29.99,NW,304,4.0,8.0,59,0.00,,---,0.00,VWS V13.01,2013-09-14 20:15:00,
2013-09-14 16:20:00,66.0,51.7,29.99,NW,325,0.0,1.0,60,0.00,,---,0.00,VWS V13.01,2013-09-14 20:20:00,
2013-09-14 16:25:00,66.2,51.5,29.99,NW,316,0.0,10.0,59,0.00,,---,0.00,VWS V13.01,2013-09-14 20:25:00,
2013-09-14 16:30:00,66.4,52.1,30.00,North,350,5.0,5.0,60,0.00,,---,0.00,VWS V13.01,2013-09-14 20:30:00,
2013-09-14 16:35:00,66.5,51.8,30.00,NNE,22,0.0,11.0,59,0.00,,---,0.00,VWS V13.01,2013-09-14 20:35:00,
2013-09-14 16:40:00,66.4,51.7,30.00,NW,309,6.0,7.0,59,0.00,,---,0.00,VWS V13.01,2013-09-14 20:40:00,
2013-09-14 16:45:00,66.3,51.6,30.00,WNW,301,2.0,12.0,59,0.00,,---,0.00,VWS V13.01,2013-09-14 20:45:00,
2013-09-14 16:50:00,66.2,51.9,30.00,North,360,1.0,2.0,60,0.00,,---,0.00,VWS V13.01,2013-09-14 20:50:00,
2013-09-14 16:55:00,66.3,52.0,30.01,NW,321,0.0,3.0,60,0.00,,---,0.00,VWS V13.01,2013-09-14 20:55:00,
2013-09-14 17:00:00,66.1,51.8,30.01,North,355,1.0,4.0,60,0.00,,---,0.00,VWS V13.01,2013-09-14 21:00:00,
2013-09-14 17:05:00,65.5,51.3,30.01,North,351,4.0,8.0,60,0.00,,---,0.00,VWS V13.01,2013-09-14 21:05:00,
2013-09-14 17:10:00,65.2,51.0,30.01,North,355,0.0,10.0,60,0.00,,---,0.00,VWS V13.01,2013-09-14 21:10:00,
2013-09-14 17:15:00,65.0,51.2,30.01,NW,316,3.0,11.0,61,0.00,,---,0.00,VWS V13.01,2013-09-14 21:15:00,
2013-09-14 17:19:00,64.6,50.9,30.02,WNW,288,3.0,6.0,61,0.00,,---,0.00,VWS V13.01,2013-09-14 21:19:00,
2013-09-14 17:24:00,64.4,51.1,30.02,NW,309,0.0,7.0,62,0.00,,---,0.00,VWS V13.01,2013-09-14 21:24:00,
2013-09-14 17:29:00,64.3,50.6,30.02,WNW,303,5.0,13.0,61,0.00,,---,0.00,VWS V13.01,2013-09-14 21:29:00,
2013-09-14 17:34:00,64.2,50.5,30.02,NW,305,12.0,12.0,61,0.00,,---,0.00,VWS V13.01,2013-09-14 21:34:00,
2013-09-14 17:39:00,64.0,50.7,30.02,WNW,283,0.0,11.0,62,0.00,,---,0.00,VWS V13.01,2013-09-14 21:39:00,
2013-09-14 17:44:00,63.7,50.5,30.02,NW,316,0.0,5.0,62,0.00,,---,0.00,VWS V13.01,2013-09-14 21:44:00,
2013-09-14 17:49:00,63.5,50.7,30.03,NNW,345,3.0,11.0,63,0.00,,---,0.00,VWS V13.01,2013-09-14 21:49:00,
2013-09-14 17:54:00,63.1,50.3,30.03,WNW,286,0.0,9.0,63,0.00,,---,0.00,VWS V13.01,2013-09-14 21:54:00,
2013-09-14 17:59:00,62.9,50.5,30.03,WNW,300,7.0,7.0,64,0.00,,---,0.00,VWS V13.01,2013-09-14 21:59:00,
2013-09-14 18:04:00,62.7,50.4,30.03,NW,313,0.0,5.0,64,0.00,,---,0.00,VWS V13.01,2013-09-14 22:04:00,
2013-09-14 18:09:00,62.7,50.8,30.03,NW,316,0.0,4.0,65,0.00,,---,0.00,VWS V13.01,2013-09-14 22:09:00,
2013-09-14 18:14:00,62.6,50.7,30.03,WNW,286,1.0,3.0,65,0.00,,---,0.00,VWS V13.01,2013-09-14 22:14:00,
2013-09-14 18:19:00,62.6,50.7,30.03,West,275,9.0,10.0,65,0.00,,---,0.00,VWS V13.01,2013-09-14 22:19:00,
2013-09-14 18:24:00,62.6,50.7,30.03,WSW,254,3.0,7.0,65,0.00,,---,0.00,VWS V13.01,2013-09-14 22:24:00,
2013-09-14 18:29:00,62.5,51.0,30.04,NW,311,0.0,4.0,66,0.00,,---,0.00,VWS V13.01,2013-09-14 22:29:00,
2013-09-14 18:34:00,62.4,50.9,30.04,NW,320,3.0,4.0,66,0.00,,---,0.00,VWS V13.01,2013-09-14 22:34:00,
2013-09-14 18:39:00,62.3,50.8,30.04,NW,315,3.0,4.0,66,0.00,,---,0.00,VWS V13.01,2013-09-14 22:39:00,
2013-09-14 18:44:00,62.2,50.7,30.04,NNW,332,0.0,0.0,66,0.00,,---,0.00,VWS V13.01,2013-09-14 22:44:00,
2013-09-14 18:49:00,62.1,51.0,30.04,WSW,252,0.0,1.0,67,0.00,,---,0.00,VWS V13.01,2013-09-14 22:49:00,
2013-09-14 18:54:00,62.0,50.9,30.04,NNW,329,2.0,4.0,67,0.00,,---,0.00,VWS V13.01,2013-09-14 22:54:00,
2013-09-14 18:59:00,61.8,50.7,30.04,NW,310,3.0,6.0,67,0.00,,---,0.00,VWS V13.01,2013-09-14 22:59:00,
2013-09-14 19:04:00,61.7,50.6,30.05,NW,311,0.0,0.0,67,0.00,,---,0.00,VWS V13.01,2013-09-14 23:04:00,
2013-09-14 19:09:00,61.6,51.0,30.04,NW,311,0.0,0.0,68,0.00,,---,0.00,VWS V13.01,2013-09-14 23:09:00,
2013-09-14 19:14:00,61.4,51.2,30.04,WNW,303,0.0,0.0,69,0.00,,---,0.00,VWS V13.01,2013-09-14 23:14:00,
2013-09-14 19:19:00,61.2,51.0,30.05,NNW,332,0.0,0.0,69,0.00,,---,0.00,VWS V13.01,2013-09-14 23:19:00,
2013-09-14 19:24:00,61.0,50.8,30.05,NW,309,3.0,4.0,69,0.00,,---,0.00,VWS V13.01,2013-09-14 23:24:00,
2013-09-14 19:29:00,60.8,51.0,30.05,WNW,296,0.0,0.0,70,0.00,,---,0.00,VWS V13.01,2013-09-14 23:29:00,
2013-09-14 19:34:00,60.7,50.9,30.05,WNW,302,0.0,1.0,70,0.00,,---,0.00,VWS V13.01,2013-09-14 23:34:00,
2013-09-14 19:39:00,60.5,51.1,30.06,NW,318,0.0,0.0,71,0.00,,---,0.00,VWS V13.01,2013-09-14 23:39:00,
2013-09-14 19:44:00,60.3,50.9,30.06,West,281,0.0,0.0,71,0.00,,---,0.00,VWS V13.01,2013-09-14 23:44:00,
2013-09-14 19:49:00,60.2,51.2,30.06,NNE,30,0.0,0.0,72,0.00,,---,0.00,VWS V13.01,2013-09-14 23:49:00,
2013-09-14 19:54:00,60.0,51.0,30.06,NW,321,0.0,0.0,72,0.00,,---,0.00,VWS V13.01,2013-09-14 23:54:00,
2013-09-14 19:59:00,59.9,50.9,30.07,NW,313,0.0,0.0,72,0.00,,---,0.00,VWS V13.01,2013-09-14 23:59:00,
2013-09-14 20:04:00,59.6,50.2,30.07,WNW,298,0.0,1.0,71,0.00,,---,0.00,VWS V13.01,2013-09-15 00:04:00,
2013-09-14 20:09:00,59.5,50.1,30.07,West,277,3.0,3.0,71,0.00,,---,0.00,VWS V13.01,2013-09-15 00:09:00,
2013-09-14 20:14:00,59.4,50.0,30.08,NW,313,0.0,2.0,71,0.00,,---,0.00,VWS V13.01,2013-09-15 00:14:00,
2013-09-14 20:19:00,59.2,50.2,30.08,NW,304,0.0,0.0,72,0.00,,---,0.00,VWS V13.01,2013-09-15 00:19:00,
2013-09-14 20:24:00,59.0,50.0,30.08,NNW,336,3.0,3.0,72,0.00,,---,0.00,VWS V13.01,2013-09-15 00:24:00,
2013-09-14 20:29:00,58.8,49.8,30.08,NW,308,0.0,1.0,72,0.00,,---,0.00,VWS V13.01,2013-09-15 00:29:00,
2013-09-14 20:34:00,58.7,49.7,30.08,West,268,5.0,5.0,72,0.00,,---,0.00,VWS V13.01,2013-09-15 00:34:00,
2013-09-14 20:39:00,58.5,49.9,30.09,NW,308,0.0,0.0,73,0.00,,---,0.00,VWS V13.01,2013-09-15 00:39:00,
2013-09-14 20:44:00,58.4,49.8,30.09,WNW,290,0.0,2.0,73,0.00,,---,0.00,VWS V13.01,2013-09-15 00:44:00,
2013-09-14 20:49:00,58.2,49.6,30.09,West,264,0.0,0.0,73,0.00,,---,0.00,VWS V13.01,2013-09-15 00:49:00,
2013-09-14 20:54:00,58.0,49.8,30.09,NW,317,0.0,0.0,74,0.00,,---,0.00,VWS V13.01,2013-09-15 00:54:00,
2013-09-14 20:59:00,57.9,49.7,30.09,NNW,342,0.0,4.0,74,0.00,,---,0.00,VWS V13.01,2013-09-15 00:59:00,
2013-09-14 21:04:00,57.7,49.5,30.10,NNW,330,0.0,0.0,74,0.00,,---,0.00,VWS V13.01,2013-09-15 01:04:00,
2013-09-14 21:09:00,57.5,49.3,30.10,NW,315,0.0,0.0,74,0.00,,---,0.00,VWS V13.01,2013-09-15 01:09:00,
2013-09-14 21:14:00,57.3,49.1,30.10,NW,318,0.0,0.0,74,0.00,,---,0.00,VWS V13.01,2013-09-15 01:14:00,
2013-09-14 21:19:00,57.2,49.4,30.10,NW,309,0.0,0.0,75,0.00,,---,0.00,VWS V13.01,2013-09-15 01:19:00,
2013-09-14 21:24:00,57.0,49.2,30.10,NW,319,0.0,0.0,75,0.00,,---,0.00,VWS V13.01,2013-09-15 01:24:00,
2013-09-14 21:29:00,56.9,49.1,30.10,NW,315,0.0,2.0,75,0.00,,---,0.00,VWS V13.01,2013-09-15 01:29:00,
2013-09-14 21:34:00,56.7,48.9,30.11,NW,315,0.0,0.0,75,0.00,,---,0.00,VWS V13.01,2013-09-15 01:34:00,
2013-09-14 21:39:00,56.6,49.1,30.11,NW,318,0.0,0.0,76,0.00,,---,0.00,VWS V13.01,2013-09-15 01:39:00,
2013-09-14 21:44:00,56.5,49.0,30.11,West,277,0.0,0.0,76,0.00,,---,0.00,VWS V13.01,2013-09-15 01:44:00,
2013-09-14 21:49:00,56.3,48.8,30.11,NNW,333,0.0,3.0,76,0.00,,---,0.00,VWS V13.01,2013-09-15 01:49:00,
2013-09-14 21:54:00,56.2,49.1,30.11,NNW,333,0.0,0.0,77,0.00,,---,0.00,VWS V13.01,2013-09-15 01:54:00,
2013-09-14 21:59:00,56.0,48.9,30.11,NNW,331,4.0,4.0,77,0.00,,---,0.00,VWS V13.01,2013-09-15 01:59:00,
2013-09-14 22:04:00,55.8,48.7,30.11,NW,318,0.0,0.0,77,0.00,,---,0.00,VWS V13.01,2013-09-15 02:04:00,
2013-09-14 22:09:00,55.7,48.6,30.11,NW,316,0.0,2.0,77,0.00,,---,0.00,VWS V13.01,2013-09-15 02:09:00,
2013-09-14 22:14:00,55.6,48.5,30.11,WNW,296,2.0,2.0,77,0.00,,---,0.00,VWS V13.01,2013-09-15 02:14:00,
2013-09-14 22:19:00,55.4,48.3,30.11,NW,325,2.0,5.0,77,0.00,,---,0.00,VWS V13.01,2013-09-15 02:19:00,
2013-09-14 22:24:00,55.3,48.2,30.11,NW,317,0.0,1.0,77,0.00,,---,0.00,VWS V13.01,2013-09-15 02:24:00,
2013-09-14 22:29:00,55.3,48.2,30.11,NW,325,0.0,0.0,77,0.00,,---,0.00,VWS V13.01,2013-09-15 02:29:00,
2013-09-14 22:34:00,55.2,48.1,30.11,NW,318,2.0,2.0,77,0.00,,---,0.00,VWS V13.01,2013-09-15 02:34:00,
2013-09-14 22:39:00,55.1,48.0,30.11,NW,306,0.0,0.0,77,0.00,,---,0.00,VWS V13.01,2013-09-15 02:39:00,
2013-09-14 22:44:00,55.0,47.9,30.11,NW,317,0.0,3.0,77,0.00,,---,0.00,VWS V13.01,2013-09-15 02:44:00,
2013-09-14 22:49:00,54.9,48.2,30.11,NW,317,0.0,0.0,78,0.00,,---,0.00,VWS V13.01,2013-09-15 02:49:00,
2013-09-14 22:54:00,54.8,48.1,30.11,NW,317,3.0,3.0,78,0.00,,---,0.00,VWS V13.01,2013-09-15 02:54:00,
2013-09-14 22:59:00,54.7,48.0,30.11,NW,317,0.0,0.0,78,0.00,,---,0.00,VWS V13.01,2013-09-15 02:59:00,
2013-09-14 23:04:00,54.6,47.9,30.11,NNW,327,0.0,1.0,78,0.00,,---,0.00,VWS V13.01,2013-09-15 03:04:00,
2013-09-14 23:09:00,54.4,47.7,30.11,NW,320,0.0,0.0,78,0.00,,---,0.00,VWS V13.01,2013-09-15 03:09:00,
2013-09-14 23:14:00,54.3,47.6,30.11,NW,312,0.0,5.0,78,0.00,,---,0.00,VWS V13.01,2013-09-15 03:14:00,
2013-09-14 23:19:00,54.2,47.5,30.11,NW,313,0.0,4.0,78,0.00,,---,0.00,VWS V13.01,2013-09-15 03:19:00,
2013-09-14 23:24:00,54.1,47.4,30.11,NW,312,0.0,2.0,78,0.00,,---,0.00,VWS V13.01,2013-09-15 03:24:00,
2013-09-14 23:29:00,53.9,47.5,30.11,NW,314,0.0,0.0,79,0.00,,---,0.00,VWS V13.01,2013-09-15 03:29:00,
2013-09-14 23:34:00,53.8,47.5,30.12,NW,304,0.0,0.0,79,0.00,,---,0.00,VWS V13.01,2013-09-15 03:34:00,
2013-09-14 23:39:00,53.7,47.3,30.11,NW,304,0.0,0.0,79,0.00,,---,0.00,VWS V13.01,2013-09-15 03:39:00,
2013-09-14 23:44:00,53.6,47.3,30.11,NW,304,0.0,0.0,79,0.00,,---,0.00,VWS V13.01,2013-09-15 03:44:00,
2013-09-14 23:49:00,53.5,47.2,30.11,NW,304,0.0,0.0,79,0.00,,---,0.00,VWS V13.01,2013-09-15 03:49:00,
2013-09-14 23:54:00,53.4,47.1,30.11,NW,304,0.0,0.0,79,0.00,,---,0.00,VWS V13.01,2013-09-15 03:54:00,
2013-09-14 23:59:00,53.3,47.3,30.12,NW,304,0.0,0.0,80,0.00,,---,0.00,VWS V13.01,2013-09-15 03:59:00,